createdAt,value
2023-04-14T05:15:10.493Z,11.05
2023-04-14T05:17:38.028Z,11.07
2023-04-14T05:20:05.420Z,11.08
2023-04-14T05:22:37.332Z,11.08
2023-04-14T12:57:26.599Z,17.32
2023-04-14T12:59:55.542Z,17.34
2023-04-14T13:02:24.641Z,17.31
2023-04-14T13:04:56.433Z,17.29
2023-04-14T13:07:25.281Z,17.26
2023-04-14T13:37:33.657Z,17.22
2023-04-14T13:40:00.930Z,17.23
2023-04-14T13:42:28.168Z,17.26
2023-04-14T13:44:55.276Z,17.28
2023-04-14T13:47:28.973Z,17.26
2023-04-14T14:35:40.537Z,16.92
2023-04-14T14:38:08.139Z,16.89
2023-04-14T14:40:37.203Z,16.87
2023-04-14T14:43:47.957Z,16.85
2023-04-14T14:46:15.283Z,16.85
2023-04-14T14:48:41.793Z,16.84
2023-04-14T14:51:16.507Z,16.80
2023-04-14T14:57:06.998Z,16.69
2023-04-14T15:00:14.807Z,16.68
2023-04-14T15:02:41.904Z,16.69
2023-04-14T15:05:08.983Z,16.67
2023-04-14T15:07:44.115Z,16.63
2023-04-14T15:10:54.061Z,16.61
2023-04-14T15:13:21.327Z,16.57
2023-04-14T15:15:50.986Z,16.55
2023-04-14T15:18:21.904Z,16.52
2023-04-14T15:20:56.198Z,16.50
2023-04-14T15:23:25.558Z,16.49
2023-04-14T15:25:52.258Z,16.48
2023-04-14T15:28:21.087Z,16.47
2023-04-14T15:30:50.014Z,16.46
2023-04-14T15:33:16.599Z,16.44
2023-04-14T15:35:45.136Z,16.45
2023-04-14T15:38:11.873Z,16.47
2023-04-14T15:40:39.191Z,16.50
2023-04-14T15:43:06.700Z,16.49
2023-04-14T15:45:37.988Z,16.47
2023-04-14T15:48:06.516Z,16.47
2023-04-14T15:50:44.724Z,16.46
2023-04-14T15:53:20.404Z,16.44
2023-04-14T15:55:50.930Z,16.42
2023-04-14T15:58:18.815Z,16.41
2023-04-14T16:00:50.135Z,16.40
2023-04-14T16:03:19.307Z,16.40
2023-04-14T16:05:50.667Z,16.34
2023-04-14T16:08:19.731Z,16.33
2023-04-14T16:10:49.312Z,16.27
2023-04-14T16:13:21.425Z,16.27
2023-04-14T16:15:53.470Z,16.19
2023-04-14T17:54:38.720Z,14.94
2023-04-14T17:57:16.893Z,14.93
2023-04-14T17:59:44.453Z,14.88
2023-04-14T20:00:45.752Z,13.07
2023-04-14T20:03:12.706Z,13.03
2023-04-14T20:05:39.937Z,12.99
2023-04-14T20:08:13.274Z,12.96
2023-04-14T20:10:44.729Z,12.93
2023-04-14T20:13:11.194Z,12.99
2023-04-14T20:15:38.496Z,13.03
2023-04-14T21:03:16.047Z,12.44
2023-04-14T21:09:32.004Z,12.36
2023-04-14T22:04:36.681Z,12.15
2023-04-14T23:59:54.983Z,11.40
